»·PEaware :: UAL1919 KSAN-KSFO

UAL1919 :: KSAN-KSFO

FLIGHT INFORMATION

Flight Status: Arrived
Operator:
United Airlines
More flights by this operator :: More flights under this callsign
Pilot: Henderson P. (1210)
Aircraft: AIRBUS A320
(A320)
More flights by this aircraft type
Origin: KSAN San Diego Intl-Lindbergh
United States
Destination: KSFO San Francisco Intl
United States
More flights between these airports :: More routes between these airports
Route: PADRZ2 IKAYE RIZIN SPLNT STOKD SERFR SERFR3
File this flight plan on PilotEdge
Remarks:
Altitude:
(Current/Filed)
34,000ft
Speed:
(Current/Filed)
468kts
Departed: 12-Oct-18 01:02 PM
Arrived: 12-Oct-18 02:04 PM
Distance/Time
Traveled:
388nm/1:02
Distance/Time
To Go:
Arrived

Flight Plot

Page will automatically refresh every two minutes.

Flight plan parsing failed; only flown route is shown


Map Options




Map Legend


Flown Route
Filed Route
Departure Airport
Arrival Airport
Navaid (VOR, NDB)
Fix

Horizontal Profiles

Position Reports

Time Latitude Longitude Heading Altitude Ground
Speed
12-Oct-18 12:00 32.734184 -117.203401 266 29ft 0kts
12-Oct-18 12:01 32.734184 -117.203401 266 29ft 0kts
12-Oct-18 12:02 32.734184 -117.203401 266 29ft 0kts
12-Oct-18 12:03 32.734184 -117.203401 266 29ft 0kts
12-Oct-18 12:04 32.734184 -117.203401 266 29ft 0kts
12-Oct-18 12:05 32.734184 -117.203401 266 29ft 0kts
12-Oct-18 12:06 32.734184 -117.203401 266 29ft 0kts
12-Oct-18 12:07 32.734184 -117.203401 266 29ft 0kts
12-Oct-18 12:08 32.734184 -117.203401 266 29ft 0kts
12-Oct-18 12:09 32.734184 -117.203401 266 29ft 0kts
12-Oct-18 12:10 32.734184 -117.203401 266 29ft 0kts
12-Oct-18 12:11 32.734184 -117.203401 266 29ft 0kts
12-Oct-18 12:12 32.734184 -117.203401 266 29ft 0kts
12-Oct-18 12:13 32.734184 -117.203401 266 29ft 0kts
12-Oct-18 12:14 32.734184 -117.203401 266 29ft 0kts
12-Oct-18 12:15 32.734184 -117.203401 266 29ft 0kts
12-Oct-18 12:16 32.734184 -117.203401 266 29ft 0kts
12-Oct-18 12:17 32.734184 -117.203401 266 29ft 0kts
12-Oct-18 12:18 32.734184 -117.203401 266 29ft 0kts
12-Oct-18 12:19 32.734184 -117.203401 266 29ft 0kts
12-Oct-18 12:20 32.734184 -117.203401 266 29ft 0kts
12-Oct-18 12:21 32.734184 -117.203401 266 29ft 0kts
12-Oct-18 12:22 32.734184 -117.203401 266 29ft 0kts
12-Oct-18 12:23 32.734184 -117.203401 266 29ft 0kts
12-Oct-18 12:24 32.734184 -117.203401 266 29ft 0kts
12-Oct-18 12:25 32.734184 -117.203401 266 29ft 0kts
12-Oct-18 12:26 32.734184 -117.203401 266 29ft 0kts
12-Oct-18 12:27 32.734184 -117.203401 266 29ft 0kts
12-Oct-18 12:28 32.734184 -117.203401 266 29ft 0kts
12-Oct-18 12:29 32.734184 -117.203401 266 29ft 0kts
12-Oct-18 12:30 32.734184 -117.203401 266 29ft 0kts
12-Oct-18 12:31 32.734184 -117.203401 266 29ft 0kts
12-Oct-18 12:32 32.734184 -117.203401 266 29ft 0kts
12-Oct-18 12:33 32.734184 -117.203401 266 29ft 0kts
12-Oct-18 12:34 32.734184 -117.203401 266 29ft 0kts
12-Oct-18 12:35 32.734184 -117.203401 266 29ft 0kts
12-Oct-18 12:36 32.734184 -117.203401 266 29ft 0kts
12-Oct-18 12:37 32.734184 -117.203401 266 29ft 0kts
12-Oct-18 12:38 32.734184 -117.203401 266 29ft 0kts
12-Oct-18 12:39 32.734184 -117.203401 266 29ft 0kts
12-Oct-18 12:40 32.734184 -117.203401 266 29ft 0kts
12-Oct-18 12:41 32.734184 -117.203401 266 29ft 0kts
12-Oct-18 12:42 32.734184 -117.203401 266 29ft 0kts
12-Oct-18 12:43 32.734184 -117.203401 266 29ft 0kts
12-Oct-18 12:44 32.734184 -117.203401 266 29ft 0kts
12-Oct-18 12:45 32.734184 -117.203401 266 29ft 0kts
12-Oct-18 12:46 32.734184 -117.203401 266 29ft 0kts
12-Oct-18 12:47 32.734195 -117.202762 302 29ft 2kts
12-Oct-18 12:48 32.734004 -117.202731 15 29ft 0kts
12-Oct-18 12:49 32.734005 -117.202731 15 29ft 0kts
12-Oct-18 12:50 32.734005 -117.202731 15 29ft 0kts
12-Oct-18 12:51 32.734006 -117.202730 15 29ft 0kts
12-Oct-18 12:52 32.734007 -117.202730 15 29ft 0kts
12-Oct-18 12:53 32.734007 -117.202730 15 29ft 0kts
12-Oct-18 12:54 32.734093 -117.202701 15 29ft 2kts
12-Oct-18 12:55 32.735374 -117.201455 105 29ft 11kts
12-Oct-18 12:56 32.734102 -117.196191 106 29ft 21kts
12-Oct-18 12:57 32.732681 -117.190333 106 29ft 17kts
12-Oct-18 12:58 32.731154 -117.183995 106 29ft 21kts
12-Oct-18 12:59 32.729507 -117.177216 105 29ft 9kts
12-Oct-18 13:00 32.729534 -117.176719 71 29ft 0kts
12-Oct-18 13:01 32.729534 -117.176718 71 29ft 0kts
12-Oct-18 13:02 32.729534 -117.176717 71 29ft 0kts
12-Oct-18 13:03 32.730099 -117.175828 329 29ft 10kts
12-Oct-18 13:04 32.737476 -117.206006 287 598ft 156kts
12-Oct-18 13:05 32.768959 -117.264234 304 2780ft 220kts
12-Oct-18 13:06 32.800755 -117.320175 307 4756ft 269kts
12-Oct-18 13:07 32.847869 -117.393053 308 7791ft 292kts
12-Oct-18 13:08 32.898622 -117.471986 306 10634ft 312kts
12-Oct-18 13:09 32.957303 -117.563408 305 11792ft 378kts
12-Oct-18 13:10 33.024915 -117.668910 305 13396ft 411kts
12-Oct-18 13:11 33.103351 -117.770836 317 15316ft 427kts
12-Oct-18 13:12 33.195150 -117.863374 314 17232ft 436kts
12-Oct-18 13:13 33.275301 -117.959085 311 18836ft 445kts
12-Oct-18 13:14 33.363703 -118.064561 311 20458ft 455kts
12-Oct-18 13:15 33.448042 -118.165676 311 21839ft 463kts
12-Oct-18 13:16 33.539851 -118.276078 311 22853ft 470kts
12-Oct-18 13:17 33.622543 -118.375752 311 22849ft 471kts
12-Oct-18 13:18 33.714759 -118.487363 311 22843ft 470kts
12-Oct-18 13:19 33.798910 -118.589424 311 22842ft 470kts
12-Oct-18 13:20 33.906358 -118.720246 311 22837ft 470kts
12-Oct-18 13:21 33.982697 -118.813530 311 22846ft 470kts
12-Oct-18 13:22 34.056187 -118.903572 312 23685ft 479kts
12-Oct-18 13:23 34.142339 -119.011292 306 24791ft 485kts
12-Oct-18 13:24 34.214590 -119.149185 299 25887ft 489kts
12-Oct-18 13:25 34.286820 -119.289108 299 27195ft 487kts
12-Oct-18 13:26 34.357653 -119.427776 299 28620ft 482kts
12-Oct-18 13:27 34.426362 -119.551627 310 29932ft 482kts
12-Oct-18 13:28 34.520467 -119.666397 312 31266ft 479kts
12-Oct-18 13:29 34.610559 -119.778221 311 32476ft 477kts
12-Oct-18 13:30 34.699888 -119.888506 311 33593ft 476kts
12-Oct-18 13:31 34.792561 -120.003648 312 33847ft 475kts
12-Oct-18 13:32 34.874943 -120.106283 313 33845ft 476kts
12-Oct-18 13:33 34.967648 -120.222153 313 33822ft 477kts
12-Oct-18 13:34 35.053520 -120.329895 313 33821ft 477kts
12-Oct-18 13:35 35.149173 -120.441761 317 33831ft 478kts
12-Oct-18 13:36 35.247464 -120.551837 317 33862ft 478kts
12-Oct-18 13:37 35.338780 -120.654616 317 33884ft 478kts
12-Oct-18 13:38 35.436639 -120.765147 317 33900ft 479kts
12-Oct-18 13:39 35.531090 -120.862732 323 33914ft 479kts
12-Oct-18 13:40 35.637828 -120.961286 323 33914ft 478kts
12-Oct-18 13:41 35.743825 -121.060154 324 33917ft 477kts
12-Oct-18 13:42 35.849483 -121.158935 324 33898ft 477kts
12-Oct-18 13:43 35.955189 -121.258095 324 33882ft 477kts
12-Oct-18 13:44 36.060931 -121.357576 326 33868ft 476kts
12-Oct-18 13:45 36.171279 -121.444800 332 31790ft 473kts
12-Oct-18 13:46 36.283321 -121.532644 331 28459ft 478kts
12-Oct-18 13:47 36.388283 -121.614721 331 25056ft 483kts
12-Oct-18 13:48 36.498107 -121.701512 331 22741ft 432kts
12-Oct-18 13:49 36.594108 -121.777164 331 21294ft 399kts
12-Oct-18 13:50 36.686769 -121.850718 331 19154ft 387kts
12-Oct-18 13:51 36.781543 -121.906511 351 16966ft 368kts
12-Oct-18 13:52 36.880339 -121.932790 350 14960ft 355kts
12-Oct-18 13:53 36.974956 -121.961788 346 13044ft 347kts
12-Oct-18 13:54 37.065582 -121.997401 345 11456ft 333kts
12-Oct-18 13:55 37.148682 -122.029832 344 10442ft 305kts
12-Oct-18 13:56 37.229787 -122.061602 342 8835ft 302kts
12-Oct-18 13:57 37.302908 -122.090338 342 7555ft 294kts
12-Oct-18 13:58 37.378462 -122.120675 342 6722ft 266kts
12-Oct-18 13:59 37.439933 -122.141372 343 6318ft 225kts
12-Oct-18 14:00 37.495943 -122.160732 343 5449ft 203kts
12-Oct-18 14:01 37.539014 -122.185283 300 4751ft 144kts
12-Oct-18 14:02 37.557551 -122.229325 301 3282ft 140kts
12-Oct-18 14:03 37.575678 -122.272513 299 1885ft 137kts
12-Oct-18 14:04 37.593675 -122.315326 299 822ft 136kts
12-Oct-18 14:05 37.611344 -122.357334 299 117ft 135kts
12-Oct-18 14:06 37.621744 -122.382871 232 27ft 16kts
12-Oct-18 14:07 37.620462 -122.383707 248 27ft 6kts
12-Oct-18 14:08 37.621868 -122.387294 297 27ft 15kts
12-Oct-18 14:09 37.620516 -122.392222 208 27ft 16kts
12-Oct-18 14:10 37.618645 -122.389800 118 27ft 10kts
12-Oct-18 14:11 37.617741 -122.388866 157 27ft 1kts
12-Oct-18 14:12 37.617695 -122.388842 157 27ft 0kts
12-Oct-18 14:13 37.617695 -122.388842 157 27ft 0kts
12-Oct-18 14:14 37.617695 -122.388842 157 27ft 0kts
12-Oct-18 14:15 37.617695 -122.388842 157 27ft 0kts
12-Oct-18 14:16 37.617695 -122.388842 157 27ft 0kts
12-Oct-18 14:17 37.617695 -122.388842 157 27ft 0kts
12-Oct-18 14:18 37.617695 -122.388842 157 27ft 0kts
12-Oct-18 14:19 37.617695 -122.388842 157 27ft 0kts
12-Oct-18 14:20 37.617695 -122.388842 157 27ft 0kts

Navigation Log

Ident Type
Flight plan parsing failed, navigation log unavailable